9R7 weather

Camp Bullis Heliport
San Antonio, Texas, United States

Public forecast

Using degrees Fahrenheit for public forecast. Weather courtesy of forecast.io.

METAR (pilot weather report)

Closest report is Boerne Stage Field, 7.8 nm (14.5 km) NW. Retrieved 2019/07/21 10:35 UTC (0 seconds ago):

K5C1 211035Z AUTO 00000KT 10SM SCT011 21/21 A3000 RMK AO1

TAF (pilot weather forecast)

Closest forecast is San Antonio International Airport, 8.6 nm (16.0 km) SE. Retrieved 2019/07/21 06:30 UTC (4 hours ago):

TAF KSAT 210526Z 2106/2212 15013KT P6SM SCT250 FM210800 15010KT P6SM SCT009 BKN015 FM211400 16012KT P6SM SCT250